KANE

Anoka County-Blaine (Janes Field) Airport

Minneapolis, Minnesota, USA
METAR KANE 222050Z 17007KT 10SM SCT250 18/01 A3026
Observed Flight Rules
Apr-22 @ 20:50 UTC (an hour ago) Visual Flight Rules
Wind Visibility Clouds
170° at 7 knots 10 miles
  • Scattered at 25,000' AGL
Temperatures Readings
Current 18°C / 64°F
Dewpoint 1°C / 34°F
Humidity 32%
Altimeter 30.26" Hg
Pressure 1025 hPa
Elevation 278
METAR KANE 222050Z 17007KT 10SM SCT250 18/01 A3026
Observed Flight Rules
Apr-22 @ 20:50 UTC
(an hour ago)
VFR
Wind Visibility
170° at 7 knots 10 miles
Clouds
  • Scattered at 25,000' AGL
Temperature Dewpoint
18°C / 64°F 1°C / 34°F
Humidity Altimeter Pressure
32% 30.26" Hg 1025 hPa